Time;durP1;ratioP1;P1;durP2;ratioP2;P2;SDS_P1;SDS_P2;PMS_P1;PMS_P2;Temp;Humidity;BMP_temperature;BMP_pressure;BME280_temperature;BME280_humidity;BME280_pressure;Samples;Min_cycle;Max_cycle;Signal;HPM_P1;HPM_P2
2022/12/27 00:00:14;;;;;;;;;;;11.60;99.90;;;;;;5074457;28;19920;-66
2022/12/27 00:02:40;;;;;;;;;;;11.60;99.90;;;;;;5077323;28;19923;-68
2022/12/27 00:05:07;;;;;;;;;;;11.70;99.90;;;;;;5085206;28;19912;-69
2022/12/27 00:07:32;;;;;;;;;;;11.70;99.90;;;;;;5089221;28;19937;-67
2022/12/27 00:09:58;;;;;;;;;;;11.70;99.90;;;;;;5087347;28;19912;-67
2022/12/27 00:12:23;;;;;;;;;;;11.70;99.90;;;;;;5083229;28;19973;-69
2022/12/27 00:14:49;;;;;;;;;;;11.70;99.90;;;;;;5084835;28;19966;-67
2022/12/27 00:17:14;;;;;;;;;;;11.70;99.90;;;;;;5089013;28;20285;-67
2022/12/27 00:19:40;;;;;;;;;;;11.70;99.90;;;;;;5087001;28;20522;-68
2022/12/27 00:22:06;;;;;;;;;;;11.60;99.90;;;;;;5088957;28;19912;-68
2022/12/27 00:24:34;;;;;;;;;;;11.70;99.90;;;;;;5088465;28;19991;-67
2022/12/27 00:26:59;;;;;;;;;;;11.60;99.90;;;;;;5086841;28;19916;-66
2022/12/27 00:29:25;;;;;;;;;;;11.60;99.90;;;;;;5085462;28;20007;-67
2022/12/27 00:31:50;;;;;;;;;;;11.50;99.90;;;;;;5086608;28;20007;-67
2022/12/27 00:34:16;;;;;;;;;;;11.50;99.90;;;;;;5088211;28;20352;-67
2022/12/27 00:36:41;;;;;;;;;;;11.50;99.90;;;;;;5085046;28;19931;-68
2022/12/27 00:39:08;;;;;;;;;;;11.60;99.90;;;;;;5083694;28;19977;-67
2022/12/27 00:41:34;;;;;;;;;;;11.70;99.90;;;;;;5081175;28;20458;-68
2022/12/27 00:44:00;;;;;;;;;;;11.70;99.90;;;;;;5089391;28;19953;-66
2022/12/27 00:46:25;;;;;;;;;;;11.70;99.90;;;;;;5079414;28;20263;-69
2022/12/27 00:48:51;;;;;;;;;;;11.60;99.90;;;;;;5075584;28;19920;-66
2022/12/27 00:51:18;;;;;;;;;;;11.60;99.90;;;;;;5075058;28;19916;-67
2022/12/27 00:53:44;;;;;;;;;;;11.60;99.90;;;;;;5075343;28;19955;-68
2022/12/27 00:56:11;;;;;;;;;;;11.50;99.90;;;;;;5075879;28;19966;-68
2022/12/27 00:58:37;;;;;;;;;;;11.50;99.90;;;;;;5077924;28;19912;-68
2022/12/27 01:01:06;;;;;;;;;;;11.50;99.90;;;;;;5075584;28;19934;-67
2022/12/27 01:03:32;;;;;;;;;;;11.50;99.90;;;;;;5088725;28;19951;-67
2022/12/27 01:06:02;;;;;;;;;;;11.50;99.90;;;;;;5087203;28;19972;-67
2022/12/27 01:08:28;;;;;;;;;;;11.50;99.90;;;;;;5076604;28;20369;-67
2022/12/27 01:10:54;;;;;;;;;;;11.40;99.90;;;;;;5076209;28;19916;-68
2022/12/27 01:13:20;;;;;;;;;;;11.40;99.90;;;;;;5075976;28;20340;-67
2022/12/27 01:15:45;;;;;;;;;;;11.40;99.90;;;;;;5075744;28;20003;-67
2022/12/27 01:18:11;;;;;;;;;;;11.40;99.90;;;;;;5078880;28;19920;-67
2022/12/27 01:20:37;;;;;;;;;;;11.40;99.90;;;;;;5077768;28;19918;-68
2022/12/27 01:23:02;;;;;;;;;;;11.30;99.90;;;;;;5075045;28;19923;-66
2022/12/27 01:25:28;;;;;;;;;;;11.30;99.90;;;;;;5077122;28;19916;-67
2022/12/27 01:27:54;;;;;;;;;;;11.30;99.90;;;;;;5081787;28;19993;-67
2022/12/27 01:30:19;;;;;;;;;;;11.30;99.90;;;;;;5084925;28;19909;-67
2022/12/27 01:32:45;;;;;;;;;;;11.30;99.90;;;;;;5088448;28;19919;-68
2022/12/27 01:35:10;;;;;;;;;;;11.30;99.90;;;;;;5087639;28;19916;-67
2022/12/27 01:37:36;;;;;;;;;;;11.30;99.90;;;;;;5090005;28;19915;-67
2022/12/27 01:40:01;;;;;;;;;;;11.20;99.90;;;;;;5089661;28;20279;-67
2022/12/27 01:45:17;;;;;;;;;;;11.30;99.90;;;;;;5088115;28;20422;-67
2022/12/27 01:47:45;;;;;;;;;;;11.30;99.90;;;;;;5074129;28;20399;-66
2022/12/27 01:50:10;;;;;;;;;;;11.30;99.90;;;;;;5074239;28;20410;-66
2022/12/27 01:52:38;;;;;;;;;;;11.40;99.90;;;;;;5076170;28;19996;-67
2022/12/27 01:55:17;;;;;;;;;;;11.40;99.90;;;;;;5079935;28;19919;-67
2022/12/27 01:57:43;;;;;;;;;;;11.50;99.90;;;;;;5078954;28;19912;-67
2022/12/27 02:00:09;;;;;;;;;;;11.40;99.90;;;;;;5078961;28;19973;-67
2022/12/27 02:02:35;;;;;;;;;;;11.40;99.90;;;;;;5076980;28;19940;-68
2022/12/27 02:05:01;;;;;;;;;;;11.40;99.90;;;;;;5088779;28;20034;-68
2022/12/27 02:07:30;;;;;;;;;;;11.50;99.90;;;;;;5078648;28;19920;-67
2022/12/27 02:09:57;;;;;;;;;;;11.50;99.90;;;;;;5082013;28;19964;-66
2022/12/27 02:12:24;;;;;;;;;;;11.50;99.90;;;;;;5083783;28;20010;-66
2022/12/27 02:14:50;;;;;;;;;;;11.50;99.90;;;;;;5079706;28;20370;-67
2022/12/27 02:17:17;;;;;;;;;;;11.50;99.90;;;;;;5079099;28;19969;-66
2022/12/27 02:19:46;;;;;;;;;;;11.50;99.90;;;;;;5092086;28;19912;-66
2022/12/27 02:22:11;;;;;;;;;;;11.50;99.90;;;;;;5093530;28;20349;-66
2022/12/27 02:24:56;;;;;;;;;;;11.60;99.90;;;;;;5088928;28;19908;-67
2022/12/27 02:27:40;;;;;;;;;;;11.50;99.90;;;;;;5092894;28;19947;-65
2022/12/27 02:30:07;;;;;;;;;;;11.50;99.90;;;;;;5093052;28;19916;-66
2022/12/27 02:32:35;;;;;;;;;;;11.40;99.90;;;;;;5087958;28;19998;-66
2022/12/27 02:35:01;;;;;;;;;;;11.40;99.90;;;;;;5088911;28;19916;-66
2022/12/27 02:37:28;;;;;;;;;;;11.50;99.90;;;;;;5088386;28;20055;-66
2022/12/27 02:39:54;;;;;;;;;;;11.50;99.90;;;;;;5092027;28;19912;-64
2022/12/27 02:54:00;;;;;;;;;;;11.60;99.90;;;;;;5091048;28;19919;-65
2022/12/27 03:05:29;;;;;;;;;;;11.70;99.90;;;;;;5075354;28;19973;-66
2022/12/27 03:07:54;;;;;;;;;;;11.70;99.90;;;;;;5079293;28;19922;-67
2022/12/27 03:16:22;;;;;;;;;;;11.60;99.90;;;;;;5076385;28;19959;-65
2022/12/27 03:18:54;;;;;;;;;;;11.60;99.90;;;;;;5075183;28;20010;-68
2022/12/27 03:27:18;;;;;;;;;;;11.80;99.90;;;;;;5079884;28;19927;-66
2022/12/27 03:35:21;;;;;;;;;;;11.80;99.90;;;;;;5097560;28;20367;-66
2022/12/27 03:38:04;;;;;;;;;;;11.80;99.90;;;;;;5097810;28;19908;-66
2022/12/27 03:40:37;;;;;;;;;;;11.80;99.90;;;;;;5097952;28;19908;-66
2022/12/27 03:43:21;;;;;;;;;;;11.80;99.90;;;;;;5098874;28;19908;-66
2022/12/27 03:49:06;;;;;;;;;;;11.90;99.90;;;;;;5080236;28;20057;-66
2022/12/27 03:51:34;;;;;;;;;;;11.80;99.90;;;;;;5072697;28;19912;-66
2022/12/27 03:54:04;;;;;;;;;;;11.90;99.90;;;;;;5078709;28;19917;-66
2022/12/27 03:56:30;;;;;;;;;;;11.80;99.90;;;;;;5097703;28;19920;-66
2022/12/27 03:58:56;;;;;;;;;;;11.80;99.90;;;;;;5087969;28;19927;-67
2022/12/27 04:01:22;;;;;;;;;;;11.70;99.90;;;;;;5090206;28;19912;-68
2022/12/27 04:03:47;;;;;;;;;;;11.70;99.90;;;;;;5097480;28;20023;-66
2022/12/27 04:06:13;;;;;;;;;;;11.70;99.90;;;;;;5093233;28;19947;-67
2022/12/27 04:36:01;;;;;;;;;;;11.70;99.90;;;;;;5075597;28;20061;-68
2022/12/27 04:38:26;;;;;;;;;;;11.70;99.90;;;;;;5076174;28;20003;-66
2022/12/27 04:54:57;;;;;;;;;;;11.50;99.90;;;;;;5071066;28;19927;-66
2022/12/27 04:57:22;;;;;;;;;;;11.60;99.90;;;;;;5071448;28;20016;-66
2022/12/27 05:02:32;;;;;;;;;;;11.60;99.90;;;;;;5083525;28;20010;-64
2022/12/27 05:04:58;;;;;;;;;;;11.50;99.90;;;;;;5084994;28;20004;-66
2022/12/27 05:15:37;;;;;;;;;;;11.60;99.90;;;;;;5071009;28;20074;-66
2022/12/27 05:18:06;;;;;;;;;;;11.50;99.90;;;;;;5071068;28;19970;-68
2022/12/27 05:20:34;;;;;;;;;;;11.50;99.90;;;;;;5069819;28;19909;-66
2022/12/27 05:25:45;;;;;;;;;;;11.60;99.90;;;;;;5072530;28;19927;-66
2022/12/27 05:28:13;;;;;;;;;;;11.50;99.90;;;;;;5071590;28;20358;-67
2022/12/27 05:30:40;;;;;;;;;;;11.60;99.90;;;;;;5074021;28;19908;-67
2022/12/27 05:33:06;;;;;;;;;;;11.50;99.90;;;;;;5091571;28;19919;-66
2022/12/27 05:35:36;;;;;;;;;;;11.50;99.90;;;;;;5093650;28;19912;-68
2022/12/27 05:38:02;;;;;;;;;;;11.50;99.90;;;;;;5094465;28;19908;-67
2022/12/27 05:40:27;;;;;;;;;;;11.50;99.90;;;;;;5093826;28;19918;-67
2022/12/27 05:42:53;;;;;;;;;;;11.50;99.90;;;;;;5092921;28;19990;-67
2022/12/27 05:45:19;;;;;;;;;;;11.50;99.90;;;;;;5091915;28;19920;-66
2022/12/27 05:47:45;;;;;;;;;;;11.50;99.90;;;;;;5092291;28;19912;-67
2022/12/27 05:50:11;;;;;;;;;;;11.50;99.90;;;;;;5087596;28;19928;-66
2022/12/27 05:52:36;;;;;;;;;;;11.50;99.90;;;;;;5091956;28;19912;-68
2022/12/27 05:55:02;;;;;;;;;;;11.60;99.90;;;;;;5092259;28;19912;-67
2022/12/27 05:57:28;;;;;;;;;;;11.60;99.90;;;;;;5092593;28;20298;-66
2022/12/27 05:59:54;;;;;;;;;;;11.70;99.90;;;;;;5093944;28;19912;-67
2022/12/27 06:02:23;;;;;;;;;;;11.70;99.90;;;;;;5091744;28;19912;-68
2022/12/27 06:04:48;;;;;;;;;;;11.70;99.90;;;;;;5087681;28;19948;-66
2022/12/27 06:07:15;;;;;;;;;;;11.70;99.90;;;;;;5088509;28;19959;-67
2022/12/27 06:09:41;;;;;;;;;;;11.60;99.90;;;;;;5092138;28;20371;-66
2022/12/27 06:12:06;;;;;;;;;;;11.70;99.90;;;;;;5089992;28;19991;-69
2022/12/27 06:14:32;;;;;;;;;;;11.70;99.90;;;;;;5091371;28;20289;-67
2022/12/27 06:16:58;;;;;;;;;;;11.70;99.90;;;;;;5092201;28;19909;-66
2022/12/27 06:19:24;;;;;;;;;;;11.70;99.90;;;;;;5092846;28;19915;-65
2022/12/27 06:21:49;;;;;;;;;;;11.70;99.90;;;;;;5085119;28;20090;-67
2022/12/27 06:24:15;;;;;;;;;;;11.70;99.90;;;;;;5083561;28;19912;-68
2022/12/27 06:26:41;;;;;;;;;;;11.70;99.90;;;;;;5079878;28;19928;-67
2022/12/27 06:29:11;;;;;;;;;;;11.70;99.90;;;;;;5078708;28;19919;-67
2022/12/27 06:31:37;;;;;;;;;;;11.60;99.90;;;;;;5079536;28;19918;-67
2022/12/27 06:34:03;;;;;;;;;;;11.60;99.90;;;;;;5077968;28;20003;-67
2022/12/27 06:36:29;;;;;;;;;;;11.60;99.90;;;;;;5081908;28;19912;-66
2022/12/27 06:38:55;;;;;;;;;;;11.60;99.90;;;;;;5079785;28;19931;-67
2022/12/27 06:41:21;;;;;;;;;;;11.60;99.90;;;;;;5080786;28;19920;-67
2022/12/27 06:43:46;;;;;;;;;;;11.60;99.90;;;;;;5078120;28;19914;-66
2022/12/27 06:46:16;;;;;;;;;;;11.60;99.90;;;;;;5092292;28;19931;-65
2022/12/27 06:48:42;;;;;;;;;;;11.60;99.90;;;;;;5079058;28;19923;-67
2022/12/27 06:51:10;;;;;;;;;;;11.50;99.90;;;;;;5079395;28;20424;-68
2022/12/27 06:53:36;;;;;;;;;;;11.60;99.90;;;;;;5076470;28;19912;-66
2022/12/27 06:56:05;;;;;;;;;;;11.60;99.90;;;;;;5077135;28;19913;-68
2022/12/27 06:58:31;;;;;;;;;;;11.60;99.90;;;;;;5074257;28;19956;-65
2022/12/27 07:00:57;;;;;;;;;;;11.60;99.90;;;;;;5076426;28;19959;-67
2022/12/27 07:03:23;;;;;;;;;;;11.60;99.90;;;;;;5078948;28;19919;-67
2022/12/27 07:05:48;;;;;;;;;;;11.60;99.90;;;;;;5079038;28;19916;-68
2022/12/27 07:08:14;;;;;;;;;;;11.60;99.90;;;;;;5079131;28;20393;-67
2022/12/27 07:10:40;;;;;;;;;;;11.70;99.90;;;;;;5076850;28;19928;-66
2022/12/27 07:13:06;;;;;;;;;;;11.60;99.90;;;;;;5077283;28;19916;-66
2022/12/27 07:15:31;;;;;;;;;;;11.60;99.90;;;;;;5076302;28;19928;-66
2022/12/27 07:17:58;;;;;;;;;;;11.70;99.90;;;;;;5077290;28;19916;-67
2022/12/27 07:20:24;;;;;;;;;;;11.70;99.90;;;;;;5073693;28;19916;-67
2022/12/27 07:22:50;;;;;;;;;;;11.70;99.90;;;;;;5077785;28;19920;-67
2022/12/27 07:25:15;;;;;;;;;;;11.70;99.90;;;;;;5076383;28;19912;-67
2022/12/27 07:27:41;;;;;;;;;;;11.70;99.90;;;;;;5082344;28;20000;-66
2022/12/27 07:30:07;;;;;;;;;;;11.70;99.90;;;;;;5089642;28;19914;-67
2022/12/27 07:32:32;;;;;;;;;;;11.70;99.90;;;;;;5090978;28;19908;-67
2022/12/27 07:34:58;;;;;;;;;;;11.70;99.90;;;;;;5091014;28;19915;-66
2022/12/27 07:37:24;;;;;;;;;;;11.70;99.90;;;;;;5090613;28;19908;-69
2022/12/27 07:39:49;;;;;;;;;;;11.70;99.90;;;;;;5090943;28;19908;-66
2022/12/27 07:42:15;;;;;;;;;;;11.70;99.90;;;;;;5086081;28;20400;-66
2022/12/27 07:44:40;;;;;;;;;;;11.70;99.90;;;;;;5087711;28;19920;-68
2022/12/27 07:47:06;;;;;;;;;;;11.70;99.90;;;;;;5076653;28;19920;-67
2022/12/27 07:49:31;;;;;;;;;;;11.70;99.90;;;;;;5076848;28;19912;-66
2022/12/27 07:51:57;;;;;;;;;;;11.70;99.90;;;;;;5075416;28;19920;-67
2022/12/27 07:54:23;;;;;;;;;;;11.70;99.90;;;;;;5077344;28;19920;-68
2022/12/27 07:56:48;;;;;;;;;;;11.70;99.90;;;;;;5078067;28;19916;-66
2022/12/27 07:59:14;;;;;;;;;;;11.70;99.90;;;;;;5077208;28;19920;-67
2022/12/27 08:04:23;;;;;;;;;;;11.70;99.90;;;;;;5080123;28;19970;-68
2022/12/27 08:06:49;;;;;;;;;;;11.70;99.90;;;;;;5089143;28;19916;-67
2022/12/27 08:09:17;;;;;;;;;;;11.70;99.90;;;;;;5087255;28;20021;-68
2022/12/27 08:11:42;;;;;;;;;;;11.60;99.90;;;;;;5089522;28;19930;-68
2022/12/27 08:14:08;;;;;;;;;;;11.70;99.90;;;;;;5074690;28;19912;-67
2022/12/27 08:16:33;;;;;;;;;;;11.60;99.90;;;;;;5073148;28;19916;-68
2022/12/27 08:18:59;;;;;;;;;;;11.70;99.90;;;;;;5072907;28;20362;-67
2022/12/27 08:21:24;;;;;;;;;;;11.70;99.90;;;;;;5077023;28;19912;-67
2022/12/27 08:23:50;;;;;;;;;;;11.80;99.90;;;;;;5077600;28;19931;-67
2022/12/27 08:26:16;;;;;;;;;;;11.80;99.90;;;;;;5076849;28;19919;-70
2022/12/27 08:28:41;;;;;;;;;;;11.80;99.90;;;;;;5077316;28;19912;-67
2022/12/27 08:31:08;;;;;;;;;;;11.80;99.90;;;;;;5071305;28;19919;-64
2022/12/27 08:33:34;;;;;;;;;;;11.80;99.90;;;;;;5074532;28;19912;-66
2022/12/27 08:36:03;;;;;;;;;;;11.80;99.90;;;;;;5077118;28;19912;-66
2022/12/27 08:38:28;;;;;;;;;;;11.80;99.90;;;;;;5076550;28;19920;-69
2022/12/27 08:40:54;;;;;;;;;;;11.90;99.90;;;;;;5077936;28;19922;-66
2022/12/27 08:43:19;;;;;;;;;;;11.90;99.90;;;;;;5078382;28;20017;-67
2022/12/27 08:45:45;;;;;;;;;;;11.90;99.90;;;;;;5073365;28;19955;-67
2022/12/27 08:48:10;;;;;;;;;;;12.00;99.90;;;;;;5072019;28;19919;-65
2022/12/27 08:50:36;;;;;;;;;;;12.00;99.90;;;;;;5075841;28;19916;-65
2022/12/27 08:53:02;;;;;;;;;;;12.10;99.90;;;;;;5078357;28;19966;-64
2022/12/27 08:55:28;;;;;;;;;;;12.10;99.90;;;;;;5082215;28;20099;-67
2022/12/27 08:57:58;;;;;;;;;;;12.10;99.90;;;;;;5075135;28;20003;-65
2022/12/27 09:00:24;;;;;;;;;;;12.10;99.90;;;;;;5080900;28;19923;-64
2022/12/27 09:02:49;;;;;;;;;;;12.00;99.90;;;;;;5085170;28;19918;-64
2022/12/27 09:05:15;;;;;;;;;;;12.10;99.90;;;;;;5078307;28;20017;-68
2022/12/27 09:07:41;;;;;;;;;;;12.00;99.90;;;;;;5085904;28;19913;-66
2022/12/27 09:10:06;;;;;;;;;;;12.10;99.90;;;;;;5088018;28;19959;-66
2022/12/27 09:12:32;;;;;;;;;;;12.10;99.90;;;;;;5080075;28;20243;-66
2022/12/27 09:14:58;;;;;;;;;;;12.10;99.90;;;;;;5085489;28;20005;-65
2022/12/27 09:17:24;;;;;;;;;;;12.00;99.90;;;;;;5079140;28;20009;-64
2022/12/27 09:19:49;;;;;;;;;;;11.90;99.90;;;;;;5079421;28;19958;-64
2022/12/27 09:22:15;;;;;;;;;;;11.80;99.90;;;;;;5076333;28;19912;-64
2022/12/27 09:24:40;;;;;;;;;;;11.90;99.90;;;;;;5078542;28;19920;-66
2022/12/27 09:27:06;;;;;;;;;;;11.80;99.90;;;;;;5084505;28;19916;-65
2022/12/27 09:29:32;;;;;;;;;;;11.80;99.90;;;;;;5087735;28;19908;-65
2022/12/27 09:31:57;;;;;;;;;;;11.80;99.90;;;;;;5087839;28;19912;-65
2022/12/27 09:34:23;;;;;;;;;;;11.70;99.90;;;;;;5082580;28;19931;-63
2022/12/27 09:36:48;;;;;;;;;;;11.80;99.90;;;;;;5084922;28;19934;-65
2022/12/27 09:39:15;;;;;;;;;;;11.80;99.90;;;;;;5081247;28;20618;-65
2022/12/27 09:41:41;;;;;;;;;;;11.90;99.90;;;;;;5083466;28;19912;-64
2022/12/27 09:44:25;;;;;;;;;;;11.90;99.90;;;;;;5089624;28;19915;-64
2022/12/27 09:46:54;;;;;;;;;;;12.00;99.90;;;;;;5078581;28;19924;-65
2022/12/27 09:49:30;;;;;;;;;;;12.00;99.90;;;;;;5081107;28;19916;-64
2022/12/27 09:52:09;;;;;;;;;;;12.10;99.90;;;;;;5089069;28;19999;-64
2022/12/27 09:54:44;;;;;;;;;;;12.10;99.90;;;;;;5087916;28;19974;-64
2022/12/27 09:57:15;;;;;;;;;;;12.20;99.90;;;;;;5087288;28;19924;-64
2022/12/27 09:59:44;;;;;;;;;;;12.10;99.90;;;;;;5086484;28;20305;-65
2022/12/27 10:02:18;;;;;;;;;;;12.20;99.90;;;;;;5085272;28;19916;-64
2022/12/27 10:04:44;;;;;;;;;;;12.10;99.90;;;;;;5081736;28;19916;-64
2022/12/27 10:07:23;;;;;;;;;;;12.20;99.90;;;;;;5088887;28;19916;-64
2022/12/27 10:09:55;;;;;;;;;;;12.10;99.90;;;;;;5085803;28;19912;-64
2022/12/27 10:12:32;;;;;;;;;;;12.20;99.90;;;;;;5086508;28;19919;-65
2022/12/27 10:14:58;;;;;;;;;;;12.20;99.90;;;;;;5088374;28;19995;-64
2022/12/27 10:17:36;;;;;;;;;;;12.20;99.90;;;;;;5092892;28;19956;-64
2022/12/27 10:20:07;;;;;;;;;;;12.20;99.90;;;;;;5087837;28;19934;-64
2022/12/27 10:22:35;;;;;;;;;;;12.20;99.90;;;;;;5092571;28;20037;-64
2022/12/27 10:25:08;;;;;;;;;;;12.20;99.90;;;;;;5092398;28;19947;-65
2022/12/27 10:27:34;;;;;;;;;;;12.30;99.90;;;;;;5092892;28;19916;-65
2022/12/27 10:30:00;;;;;;;;;;;12.20;99.90;;;;;;5089024;28;19912;-65
2022/12/27 10:32:26;;;;;;;;;;;12.20;99.90;;;;;;5086973;28;20011;-64
2022/12/27 10:34:55;;;;;;;;;;;12.30;99.90;;;;;;5089422;28;20004;-64
2022/12/27 10:37:21;;;;;;;;;;;12.40;99.90;;;;;;5090625;28;19962;-63
2022/12/27 10:39:46;;;;;;;;;;;12.40;99.90;;;;;;5087678;28;19952;-63
2022/12/27 10:42:21;;;;;;;;;;;12.40;99.90;;;;;;5092700;28;19965;-65
2022/12/27 10:44:46;;;;;;;;;;;12.30;99.90;;;;;;5091525;28;19940;-65
2022/12/27 10:47:12;;;;;;;;;;;12.40;99.90;;;;;;5084817;28;20386;-65
2022/12/27 10:49:38;;;;;;;;;;;12.40;99.90;;;;;;5088338;28;19908;-66
2022/12/27 10:52:21;;;;;;;;;;;12.40;99.90;;;;;;5092292;28;19918;-65
2022/12/27 10:54:51;;;;;;;;;;;12.40;99.90;;;;;;5091037;28;19949;-64
2022/12/27 10:57:37;;;;;;;;;;;12.50;99.90;;;;;;5092037;28;20285;-65
2022/12/27 11:00:15;;;;;;;;;;;12.50;99.90;;;;;;5086300;28;19917;-65
2022/12/27 11:02:54;;;;;;;;;;;12.50;99.90;;;;;;5087837;28;19923;-65
2022/12/27 11:05:27;;;;;;;;;;;12.50;99.90;;;;;;5089245;28;19912;-64
2022/12/27 11:07:52;;;;;;;;;;;12.50;99.90;;;;;;5091494;28;20004;-65
2022/12/27 11:10:19;;;;;;;;;;;12.50;99.90;;;;;;5085360;28;20359;-64
2022/12/27 11:12:57;;;;;;;;;;;12.60;99.90;;;;;;5092075;28;19916;-64
2022/12/27 11:15:23;;;;;;;;;;;12.50;99.90;;;;;;5089459;28;19939;-64
2022/12/27 11:17:51;;;;;;;;;;;12.50;99.90;;;;;;5091610;28;19951;-66
2022/12/27 11:20:17;;;;;;;;;;;12.60;99.90;;;;;;5088927;28;20002;-64
2022/12/27 11:22:47;;;;;;;;;;;12.60;99.90;;;;;;5090849;28;19920;-65
2022/12/27 11:25:13;;;;;;;;;;;12.50;99.90;;;;;;5086566;28;19915;-64
2022/12/27 11:27:43;;;;;;;;;;;12.50;99.90;;;;;;5088113;28;19916;-65
2022/12/27 11:30:19;;;;;;;;;;;12.50;99.90;;;;;;5091573;28;19909;-65
2022/12/27 11:32:45;;;;;;;;;;;12.50;99.90;;;;;;5089358;28;19912;-65
2022/12/27 11:35:16;;;;;;;;;;;12.50;99.90;;;;;;5071342;28;19935;-63
2022/12/27 11:37:41;;;;;;;;;;;12.50;99.90;;;;;;5071875;28;20277;-64
2022/12/27 11:40:19;;;;;;;;;;;12.40;99.90;;;;;;5079984;28;19969;-64
2022/12/27 11:42:46;;;;;;;;;;;12.40;99.90;;;;;;5090828;28;19912;-65
2022/12/27 11:45:18;;;;;;;;;;;12.50;99.90;;;;;;5087613;28;20003;-64
2022/12/27 11:48:05;;;;;;;;;;;12.40;99.90;;;;;;5089237;28;19965;-65
2022/12/27 11:50:42;;;;;;;;;;;12.40;99.90;;;;;;5091096;28;19930;-65
2022/12/27 11:53:22;;;;;;;;;;;12.30;99.90;;;;;;5085284;28;19908;-65
2022/12/27 11:55:51;;;;;;;;;;;12.40;99.90;;;;;;5083613;28;19912;-65
2022/12/27 11:58:23;;;;;;;;;;;12.30;99.90;;;;;;5089010;28;19958;-65
2022/12/27 12:00:56;;;;;;;;;;;12.30;99.90;;;;;;5090180;28;19908;-64
2022/12/27 12:03:24;;;;;;;;;;;12.30;99.90;;;;;;5086387;28;19912;-64
2022/12/27 12:06:09;;;;;;;;;;;12.30;99.90;;;;;;5087022;28;21837;-67
2022/12/27 12:08:43;;;;;;;;;;;12.30;99.90;;;;;;5086960;28;19939;-66
2022/12/27 12:11:18;;;;;;;;;;;12.20;99.90;;;;;;5088108;28;19908;-64
2022/12/27 12:13:55;;;;;;;;;;;12.30;99.90;;;;;;5088277;28;19915;-65
2022/12/27 12:16:33;;;;;;;;;;;12.20;99.90;;;;;;5091655;28;19915;-64
2022/12/27 12:18:59;;;;;;;;;;;12.30;99.90;;;;;;5085818;28;19919;-64
2022/12/27 12:21:25;;;;;;;;;;;12.20;99.90;;;;;;5086452;28;19962;-67
2022/12/27 12:23:57;;;;;;;;;;;12.20;99.90;;;;;;5083032;28;19927;-65
2022/12/27 12:26:29;;;;;;;;;;;12.10;99.90;;;;;;5089253;28;19923;-65
2022/12/27 12:29:13;;;;;;;;;;;12.10;99.90;;;;;;5086326;28;19920;-65
2022/12/27 12:31:44;;;;;;;;;;;12.20;99.90;;;;;;5082641;28;19946;-66
2022/12/27 12:34:33;;;;;;;;;;;12.10;99.90;;;;;;5084751;28;20013;-65
2022/12/27 12:37:02;;;;;;;;;;;12.10;99.90;;;;;;5062988;28;19912;-67
2022/12/27 12:39:27;;;;;;;;;;;12.00;99.90;;;;;;5086426;28;19948;-64
2022/12/27 12:41:53;;;;;;;;;;;12.00;99.90;;;;;;5088808;28;19939;-66
2022/12/27 12:44:37;;;;;;;;;;;12.00;99.90;;;;;;5086019;28;20424;-66
2022/12/27 12:47:22;;;;;;;;;;;12.10;99.90;;;;;;5084213;28;19916;-66
2022/12/27 12:50:05;;;;;;;;;;;12.00;99.90;;;;;;5094247;28;19916;-66
2022/12/27 12:52:34;;;;;;;;;;;12.10;99.90;;;;;;5088174;28;19912;-66
2022/12/27 12:55:08;;;;;;;;;;;12.10;99.90;;;;;;5084493;28;19958;-65
2022/12/27 12:57:52;;;;;;;;;;;12.10;99.90;;;;;;5089228;28;19912;-65
2022/12/27 13:00:24;;;;;;;;;;;12.00;99.90;;;;;;5089768;28;19919;-64
2022/12/27 13:03:08;;;;;;;;;;;12.00;99.90;;;;;;5089158;28;20012;-65
2022/12/27 13:05:39;;;;;;;;;;;12.00;99.90;;;;;;5088682;28;19977;-65
2022/12/27 13:08:11;;;;;;;;;;;12.00;99.90;;;;;;5080864;28;19922;-65
2022/12/27 13:10:37;;;;;;;;;;;12.00;99.90;;;;;;5089889;28;19958;-65
2022/12/27 13:13:02;;;;;;;;;;;12.00;99.90;;;;;;5090454;28;19912;-65
2022/12/27 13:15:28;;;;;;;;;;;12.00;99.90;;;;;;5088962;28;19912;-64
2022/12/27 13:18:12;;;;;;;;;;;12.00;99.90;;;;;;5094470;28;20002;-66
2022/12/27 13:20:45;;;;;;;;;;;12.00;99.90;;;;;;5085243;28;19912;-65
2022/12/27 13:23:16;;;;;;;;;;;12.00;99.90;;;;;;5082881;28;20309;-65
2022/12/27 13:25:52;;;;;;;;;;;12.10;99.90;;;;;;5088774;28;20377;-65
2022/12/27 13:28:21;;;;;;;;;;;12.10;99.90;;;;;;5085049;28;19912;-66
2022/12/27 13:30:52;;;;;;;;;;;12.20;99.90;;;;;;5089529;28;19930;-65
2022/12/27 13:33:21;;;;;;;;;;;12.30;99.90;;;;;;5086883;28;20409;-64
2022/12/27 13:35:59;;;;;;;;;;;12.30;99.90;;;;;;5089651;28;19908;-65
2022/12/27 13:38:43;;;;;;;;;;;12.30;99.90;;;;;;5087150;28;19921;-66
2022/12/27 13:41:15;;;;;;;;;;;12.30;99.90;;;;;;5084420;28;19919;-65
2022/12/27 13:43:47;;;;;;;;;;;12.20;99.90;;;;;;5087571;28;19912;-66
2022/12/27 13:46:33;;;;;;;;;;;12.20;99.90;;;;;;5084743;28;19923;-66
2022/12/27 13:48:59;;;;;;;;;;;12.30;99.90;;;;;;5082190;28;19970;-66
2022/12/27 13:51:30;;;;;;;;;;;12.30;99.90;;;;;;5084148;28;19912;-65
2022/12/27 13:53:59;;;;;;;;;;;12.30;99.90;;;;;;5079123;28;19927;-66
2022/12/27 13:56:33;;;;;;;;;;;12.30;99.90;;;;;;5081841;28;19988;-65
2022/12/27 13:59:09;;;;;;;;;;;12.40;99.90;;;;;;5089713;28;19912;-65
2022/12/27 14:01:43;;;;;;;;;;;12.50;99.90;;;;;;5078659;28;20433;-67
2022/12/27 14:04:29;;;;;;;;;;;12.60;99.90;;;;;;5083972;28;19990;-66
2022/12/27 14:07:27;;;;;;;;;;;12.70;99.90;;;;;;5088401;28;19927;-65
2022/12/27 14:10:11;;;;;;;;;;;12.60;99.90;;;;;;5072784;28;19912;-65
2022/12/27 14:12:47;;;;;;;;;;;12.50;99.90;;;;;;5087857;28;19973;-66
2022/12/27 14:15:18;;;;;;;;;;;12.50;99.90;;;;;;5085170;28;20234;-65
2022/12/27 14:17:46;;;;;;;;;;;12.50;99.90;;;;;;5081330;28;19966;-65
2022/12/27 14:20:16;;;;;;;;;;;12.50;99.90;;;;;;5087467;28;19923;-64
2022/12/27 14:23:00;;;;;;;;;;;12.40;99.90;;;;;;5094091;28;19919;-64
2022/12/27 14:25:46;;;;;;;;;;;12.30;99.90;;;;;;5056108;28;19972;-63
2022/12/27 14:28:28;;;;;;;;;;;12.30;99.90;;;;;;5039638;28;19913;-64
2022/12/27 14:31:00;;;;;;;;;;;12.30;99.90;;;;;;5049908;28;20224;-65
2022/12/27 14:33:37;;;;;;;;;;;12.30;99.90;;;;;;5045910;28;19916;-63
2022/12/27 14:36:21;;;;;;;;;;;12.40;99.90;;;;;;5053090;28;19913;-64
2022/12/27 14:38:53;;;;;;;;;;;12.30;99.90;;;;;;5045399;28;19990;-64
2022/12/27 14:41:37;;;;;;;;;;;12.40;99.90;;;;;;5052276;28;19913;-63
2022/12/27 14:44:21;;;;;;;;;;;12.30;99.90;;;;;;5045787;28;19913;-65
2022/12/27 14:47:05;;;;;;;;;;;12.30;99.90;;;;;;5037549;28;19921;-65
2022/12/27 14:49:37;;;;;;;;;;;12.20;99.90;;;;;;5040003;28;19954;-65
2022/12/27 14:52:34;;;;;;;;;;;12.30;99.90;;;;;;5040510;28;19920;-67
2022/12/27 14:55:18;;;;;;;;;;;12.30;99.90;;;;;;5045391;28;20145;-66
2022/12/27 14:57:50;;;;;;;;;;;12.30;99.90;;;;;;5049818;28;19924;-65
2022/12/27 15:00:20;;;;;;;;;;;12.20;99.90;;;;;;5046568;28;19915;-65
2022/12/27 15:02:46;;;;;;;;;;;12.20;99.90;;;;;;5041432;28;20289;-66
2022/12/27 15:05:11;;;;;;;;;;;12.30;99.90;;;;;;5049936;28;20007;-65
2022/12/27 15:07:40;;;;;;;;;;;12.30;99.90;;;;;;5051034;28;19963;-67
2022/12/27 15:10:11;;;;;;;;;;;12.30;99.90;;;;;;5051601;28;19982;-65
2022/12/27 15:12:55;;;;;;;;;;;12.20;99.90;;;;;;5050865;28;19923;-66
2022/12/27 15:15:41;;;;;;;;;;;12.20;99.90;;;;;;5047909;28;19921;-64
2022/12/27 15:18:14;;;;;;;;;;;12.10;99.90;;;;;;5047511;28;19912;-65
2022/12/27 15:20:44;;;;;;;;;;;12.20;99.90;;;;;;5049643;28;19954;-65
2022/12/27 15:23:22;;;;;;;;;;;12.10;99.90;;;;;;5049632;28;20440;-66
2022/12/27 15:25:48;;;;;;;;;;;12.10;99.90;;;;;;5051387;28;19921;-64
2022/12/27 15:28:28;;;;;;;;;;;12.20;99.90;;;;;;5048635;28;19909;-66
2022/12/27 15:31:00;;;;;;;;;;;12.20;99.90;;;;;;5050254;28;19921;-65
2022/12/27 15:33:26;;;;;;;;;;;12.00;99.90;;;;;;5047918;28;19909;-66
2022/12/27 15:36:00;;;;;;;;;;;12.00;99.90;;;;;;5051205;28;20285;-65
2022/12/27 15:38:38;;;;;;;;;;;12.10;99.90;;;;;;5040917;28;19971;-64
2022/12/27 15:41:05;;;;;;;;;;;12.00;99.90;;;;;;5030122;28;19917;-64
2022/12/27 15:43:33;;;;;;;;;;;12.00;99.90;;;;;;5031832;28;19913;-65
2022/12/27 15:46:18;;;;;;;;;;;11.90;99.90;;;;;;5041311;28;19963;-64
2022/12/27 15:48:52;;;;;;;;;;;12.00;99.90;;;;;;5038666;28;19913;-66
2022/12/27 15:51:29;;;;;;;;;;;12.10;99.90;;;;;;5046567;28;19952;-64
2022/12/27 15:53:55;;;;;;;;;;;12.00;99.90;;;;;;5039890;28;20095;-65
2022/12/27 15:56:20;;;;;;;;;;;12.00;99.90;;;;;;5047558;28;20401;-65
2022/12/27 15:59:06;;;;;;;;;;;11.90;99.90;;;;;;5048531;28;20382;-66
2022/12/27 16:01:33;;;;;;;;;;;11.90;99.90;;;;;;5049970;28;19908;-66
2022/12/27 16:04:18;;;;;;;;;;;11.90;99.90;;;;;;5044758;28;19919;-65
2022/12/27 16:06:47;;;;;;;;;;;11.80;99.90;;;;;;5046994;28;19920;-64
2022/12/27 16:09:16;;;;;;;;;;;11.80;99.90;;;;;;5049906;28;19955;-65
2022/12/27 16:12:08;;;;;;;;;;;11.70;99.90;;;;;;5050301;28;19908;-65